Time;durP1;ratioP1;P1;durP2;ratioP2;P2;SDS_P1;SDS_P2;PMS_P1;PMS_P2;Temp;Humidity;BMP_temperature;BMP_pressure;BME280_temperature;BME280_humidity;BME280_pressure;Samples;Min_cycle;Max_cycle;Signal;HPM_P1;HPM_P2
2022/10/09 04:01:30;;;;;;;148.63;4.17;;;2.10;96.30;;;;;;5420240;23;20498;-80
2022/10/09 04:03:56;;;;;;;112.37;3.87;;;2.10;96.30;;;;;;4954734;28;20431;-79
2022/10/09 04:06:21;;;;;;;122.93;3.73;;;2.10;96.30;;;;;;4954569;29;20218;-80
2022/10/09 04:08:47;;;;;;;146.80;5.03;;;2.00;96.30;;;;;;4954614;29;20635;-78
2022/10/09 04:11:12;;;;;;;201.90;5.50;;;2.00;96.30;;;;;;4955992;28;20198;-80
2022/10/09 04:13:38;;;;;;;451.80;10.30;;;2.00;96.30;;;;;;4956968;28;20271;-81
2022/10/09 04:16:04;;;;;;;538.83;11.70;;;2.10;96.30;;;;;;4958764;28;20643;-82
2022/10/09 04:18:29;;;;;;;460.70;9.07;;;2.20;96.30;;;;;;4961070;28;20171;-79
2022/10/09 04:23:30;;;;;;;355.33;8.27;;;2.10;96.30;;;;;;5980491;23;20197;-81
2022/10/09 04:25:58;;;;;;;489.63;10.97;;;2.00;96.30;;;;;;4936468;29;20456;-81
2022/10/09 04:28:27;;;;;;;395.67;8.17;;;2.00;96.30;;;;;;4938052;29;20258;-80
2022/10/09 04:30:53;;;;;;;328.73;7.83;;;2.00;96.30;;;;;;4937420;29;20439;-80
2022/10/09 04:33:19;;;;;;;288.87;6.60;;;2.00;96.30;;;;;;4936520;29;20853;-81
2022/10/09 04:35:48;;;;;;;346.90;8.20;;;2.10;96.30;;;;;;4936190;29;20172;-81
2022/10/09 04:38:13;;;;;;;262.33;5.50;;;2.00;96.30;;;;;;4937778;29;20184;-81
2022/10/09 04:40:39;;;;;;;217.33;5.33;;;1.90;96.30;;;;;;4936481;29;20490;-81
2022/10/09 04:43:05;;;;;;;166.63;4.27;;;1.90;96.30;;;;;;4936700;29;20210;-81
2022/10/09 04:45:30;;;;;;;180.97;4.90;;;1.80;96.30;;;;;;4936067;29;20203;-81
2022/10/09 04:47:56;;;;;;;131.67;3.97;;;1.80;96.30;;;;;;4938132;29;20862;-80
2022/10/09 04:50:21;;;;;;;87.50;2.77;;;1.80;96.30;;;;;;4937781;29;20601;-80
2022/10/09 04:52:47;;;;;;;259.60;7.53;;;1.80;96.30;;;;;;4937500;29;20211;-82
2022/10/09 04:55:12;;;;;;;146.87;5.10;;;1.80;96.30;;;;;;4937512;29;20628;-81
2022/10/09 04:57:38;;;;;;;136.00;4.90;;;1.80;96.30;;;;;;4935037;29;20183;-79
2022/10/09 05:00:04;;;;;;;116.23;3.70;;;1.80;96.30;;;;;;4926224;29;20640;-80
2022/10/09 05:02:30;;;;;;;226.20;5.70;;;1.80;96.30;;;;;;4930268;29;20209;-79
2022/10/09 05:04:56;;;;;;;272.57;6.47;;;1.70;96.30;;;;;;4931295;29;20797;-79
2022/10/09 05:07:22;;;;;;;471.43;11.33;;;1.70;96.30;;;;;;4929264;29;20199;-79
2022/10/09 05:09:47;;;;;;;188.77;5.80;;;1.80;96.30;;;;;;4921334;29;20447;-81
2022/10/09 05:12:16;;;;;;;185.27;5.40;;;1.80;96.30;;;;;;4936461;29;20865;-81
2022/10/09 05:14:41;;;;;;;69.47;2.90;;;1.80;96.30;;;;;;4936695;29;20176;-81
2022/10/09 05:17:07;;;;;;;44.77;3.10;;;1.80;96.30;;;;;;4935702;29;20447;-81
2022/10/09 05:19:32;;;;;;;26.07;2.03;;;1.80;96.30;;;;;;4936964;29;20180;-81
2022/10/09 05:21:59;;;;;;;62.40;3.40;;;1.80;96.30;;;;;;4935256;29;20714;-81
2022/10/09 05:24:25;;;;;;;258.53;6.80;;;1.70;96.30;;;;;;4935105;29;20230;-81
2022/10/09 05:26:51;;;;;;;178.73;5.70;;;1.70;96.30;;;;;;4935207;29;20502;-81
2022/10/09 05:29:16;;;;;;;56.23;3.10;;;1.80;96.30;;;;;;4934944;29;20267;-81
2022/10/09 05:31:42;;;;;;;77.13;3.63;;;1.80;96.30;;;;;;4935446;29;20199;-81
2022/10/09 05:34:09;;;;;;;89.47;4.17;;;1.80;96.30;;;;;;4931497;29;20180;-81
2022/10/09 05:36:34;;;;;;;120.80;4.37;;;1.80;96.30;;;;;;4936187;29;20207;-80
2022/10/09 05:39:00;;;;;;;88.43;3.87;;;1.90;96.30;;;;;;4938045;29;20420;-82
2022/10/09 05:41:27;;;;;;;88.97;4.47;;;2.00;96.30;;;;;;4941900;29;20202;-81
2022/10/09 05:43:53;;;;;;;22.23;2.13;;;2.20;96.30;;;;;;4940105;29;20187;-82
2022/10/09 05:46:23;;;;;;;106.87;4.47;;;2.40;96.30;;;;;;4920931;29;20460;-79
2022/10/09 05:48:53;;;;;;;161.87;5.83;;;2.60;96.30;;;;;;4923911;29;20176;-81
2022/10/09 05:51:29;;;;;;;65.33;4.57;;;3.00;96.30;;;;;;4924324;29;20444;-80
2022/10/09 05:53:58;;;;;;;15.43;3.17;;;3.50;96.30;;;;;;4920961;29;20728;-81
2022/10/09 05:56:35;;;;;;;40.13;3.13;;;3.80;96.30;;;;;;4930787;29;20424;-79
2022/10/09 05:59:03;;;;;;;52.73;3.30;;;4.00;96.30;;;;;;4942380;29;20978;-78
2022/10/09 06:01:32;;;;;;;108.90;4.77;;;4.30;96.30;;;;;;4941206;29;20444;-79
2022/10/09 06:03:59;;;;;;;118.80;4.40;;;4.30;96.30;;;;;;4942403;29;20448;-79
2022/10/09 06:06:27;;;;;;;22.17;1.83;;;4.10;96.30;;;;;;4939130;29;20458;-78
2022/10/09 06:08:54;;;;;;;44.70;2.40;;;4.00;96.30;;;;;;4921743;29;20448;-78
2022/10/09 06:11:22;;;;;;;57.33;2.67;;;4.20;96.30;;;;;;4942757;29;20434;-78
2022/10/09 06:13:48;;;;;;;119.77;4.23;;;4.20;96.30;;;;;;4941467;29;20419;-78
2022/10/09 06:16:16;;;;;;;25.77;3.33;;;4.40;96.30;;;;;;4943409;29;20439;-79
2022/10/09 06:18:45;;;;;;;15.73;1.83;;;4.90;96.30;;;;;;4947044;29;20522;-79
2022/10/09 06:21:12;;;;;;;3.20;2.03;;;5.30;96.30;;;;;;4942142;29;20443;-78
2022/10/09 06:23:39;;;;;;;2.10;1.80;;;5.90;96.30;;;;;;4932259;29;20662;-79
2022/10/09 06:26:14;;;;;;;2.23;1.70;;;6.60;96.30;;;;;;4938027;29;20490;-79
2022/10/09 06:28:42;;;;;;;5.13;1.93;;;7.10;96.30;;;;;;4948649;29;20502;-80
2022/10/09 06:31:13;;;;;;;2.90;1.90;;;7.50;96.30;;;;;;4952214;29;20470;-79
2022/10/09 06:33:40;;;;;;;2.30;2.10;;;7.80;96.30;;;;;;4954002;29;20408;-79
2022/10/09 06:36:20;;;;;;;2.40;1.83;;;8.60;96.30;;;;;;4953725;29;20439;-79
2022/10/09 06:38:48;;;;;;;2.10;1.60;;;9.60;96.30;;;;;;4956668;29;20486;-80
2022/10/09 06:41:16;;;;;;;2.27;1.70;;;10.70;96.30;;;;;;4938994;29;20451;-80
2022/10/09 06:43:42;;;;;;;3.77;2.03;;;11.80;96.30;;;;;;4954460;29;20424;-80
2022/10/09 06:46:10;;;;;;;2.10;1.33;;;12.50;96.30;;;;;;4952274;29;20465;-80
2022/10/09 06:48:37;;;;;;;1.77;1.50;;;13.10;96.30;;;;;;4951661;29;20423;-80
2022/10/09 06:51:05;;;;;;;2.60;1.60;;;13.20;96.30;;;;;;4950581;29;20432;-80
2022/10/09 06:53:39;;;;;;;3.60;2.00;;;13.00;96.30;;;;;;4949503;29;20773;-80
2022/10/09 06:56:06;;;;;;;4.23;1.80;;;13.40;96.30;;;;;;4936385;29;20852;-80
2022/10/09 06:58:31;;;;;;;3.77;1.60;;;13.70;96.30;;;;;;4930132;29;20492;-80
2022/10/09 07:01:30;;;;;;;4.27;1.50;;;14.30;96.30;;;;;;4925057;29;20464;-80
2022/10/09 07:03:58;;;;;;;2.50;1.53;;;14.60;96.30;;;;;;4925578;29;20208;-80
2022/10/09 07:06:26;;;;;;;1.73;1.43;;;14.70;96.30;;;;;;4926912;29;20550;-81
2022/10/09 07:08:56;;;;;;;2.20;1.47;;;14.30;96.30;;;;;;4922198;29;20424;-80
2022/10/09 07:11:34;;;;;;;2.23;1.60;;;13.90;96.30;;;;;;4923729;29;20440;-80
2022/10/09 07:14:01;;;;;;;2.03;1.67;;;13.90;96.30;;;;;;4931197;29;20451;-80
2022/10/09 07:16:33;;;;;;;2.40;2.20;;;13.60;96.30;;;;;;4935934;29;20440;-79
2022/10/09 07:19:02;;;;;;;2.93;2.23;;;13.20;96.30;;;;;;4939940;29;20438;-79
2022/10/09 07:21:28;;;;;;;3.00;1.90;;;11.70;96.30;;;;;;4956975;29;20443;-79
2022/10/09 07:23:54;;;;;;;2.50;1.80;;;10.80;96.30;;;;;;4956128;29;20507;-79
2022/10/09 07:26:22;;;;;;;1.70;1.60;;;9.90;96.30;;;;;;4954688;29;20466;-79
2022/10/09 07:28:48;;;;;;;2.43;2.00;;;9.20;96.30;;;;;;4940629;29;20183;-79
2022/10/09 07:31:14;;;;;;;5.80;2.70;;;8.60;96.30;;;;;;4939953;29;20423;-78
2022/10/09 07:33:42;;;;;;;6.33;2.87;;;8.00;96.30;;;;;;4940389;29;20506;-78
2022/10/09 07:36:09;;;;;;;2.80;2.00;;;7.70;96.30;;;;;;4939372;29;20187;-79
2022/10/09 07:38:35;;;;;;;7.57;2.00;;;7.40;96.30;;;;;;4942681;29;20423;-79
2022/10/09 07:41:03;;;;;;;3.10;2.20;;;7.30;96.30;;;;;;4940080;29;20455;-78
2022/10/09 07:43:29;;;;;;;5.77;2.53;;;7.30;96.30;;;;;;4933310;29;20243;-78
2022/10/09 07:45:59;;;;;;;4.67;2.57;;;7.20;96.30;;;;;;4943167;29;20447;-77
2022/10/09 07:48:25;;;;;;;5.70;2.10;;;7.30;96.30;;;;;;4941420;29;20176;-78
2022/10/09 07:50:51;;;;;;;2.83;2.40;;;7.30;96.30;;;;;;4935157;29;20444;-78
2022/10/09 07:53:17;;;;;;;3.70;2.10;;;7.40;96.30;;;;;;4939160;29;20428;-78
2022/10/09 07:55:47;;;;;;;4.03;2.33;;;7.40;96.30;;;;;;4936178;29;20687;-78
2022/10/09 07:58:14;;;;;;;3.47;2.33;;;7.50;96.30;;;;;;4930819;29;20176;-78
2022/10/09 08:00:40;;;;;;;3.40;1.93;;;7.50;96.30;;;;;;4928226;29;20448;-79
2022/10/09 08:03:06;;;;;;;2.93;2.37;;;7.60;96.30;;;;;;4931563;29;20463;-79
2022/10/09 08:05:31;;;;;;;5.07;2.40;;;7.60;96.30;;;;;;4936923;29;20256;-78
2022/10/09 08:07:57;;;;;;;2.57;2.37;;;7.70;96.30;;;;;;4921965;29;20310;-79
2022/10/09 08:10:22;;;;;;;6.97;2.73;;;7.80;96.30;;;;;;4920828;29;20243;-78
2022/10/09 08:12:48;;;;;;;3.30;2.70;;;7.90;96.30;;;;;;4920705;29;20215;-78
2022/10/09 08:15:13;;;;;;;2.43;2.23;;;7.90;96.30;;;;;;4918668;29;20267;-78
2022/10/09 08:17:39;;;;;;;6.53;2.53;;;7.90;96.30;;;;;;4918509;29;20267;-80
2022/10/09 08:20:05;;;;;;;5.20;2.83;;;8.00;96.30;;;;;;4918954;29;20255;-79
2022/10/09 08:22:31;;;;;;;2.70;2.03;;;8.10;96.30;;;;;;4918642;29;20208;-80
2022/10/09 08:24:56;;;;;;;3.40;2.30;;;8.10;96.30;;;;;;4918046;29;20941;-79
2022/10/09 08:27:22;;;;;;;6.10;2.53;;;8.30;96.30;;;;;;4916192;29;20204;-79
2022/10/09 08:29:47;;;;;;;7.27;2.30;;;8.40;96.30;;;;;;4919026;29;20321;-80
2022/10/09 08:32:13;;;;;;;4.03;2.53;;;8.50;96.30;;;;;;4917638;29;20215;-80
2022/10/09 08:34:38;;;;;;;5.73;2.47;;;8.70;96.30;;;;;;4918226;29;20188;-79
2022/10/09 08:37:04;;;;;;;3.30;1.83;;;9.00;96.30;;;;;;4917773;29;20181;-80
2022/10/09 08:39:30;;;;;;;3.87;1.80;;;9.20;96.30;;;;;;4916290;29;20186;-80
2022/10/09 08:42:00;;;;;;;3.20;1.90;;;9.30;96.30;;;;;;4925415;29;20688;-80
2022/10/09 08:44:33;;;;;;;8.93;2.10;;;9.40;96.30;;;;;;4934310;29;20588;-79
2022/10/09 08:47:39;;;;;;;6.67;2.40;;;9.60;96.30;;;;;;4934274;29;20864;-79
2022/10/09 08:50:22;;;;;;;3.97;1.73;;;10.10;96.30;;;;;;4955635;29;20433;-80
2022/10/09 08:53:01;;;;;;;6.10;1.80;;;11.30;96.30;;;;;;4940595;29;20434;-80
2022/10/09 08:55:30;;;;;;;4.00;1.30;;;12.80;96.30;;;;;;4939755;29;20430;-80
2022/10/09 08:58:05;;;;;;;5.20;1.70;;;14.20;96.30;;;;;;4938936;29;20431;-80
2022/10/09 09:00:43;;;;;;;5.30;1.37;;;15.20;96.30;;;;;;4941756;29;20430;-80
2022/10/09 09:03:54;;;;;;;5.53;1.60;;;15.40;96.30;;;;;;4939686;29;20788;-79
2022/10/09 09:06:37;;;;;;;7.37;1.30;;;15.50;96.30;;;;;;4936148;29;21053;-79
2022/10/09 09:09:18;;;;;;;3.20;1.00;;;15.60;96.30;;;;;;4921150;29;20417;-79
2022/10/09 09:12:05;;;;;;;6.27;1.40;;;15.80;96.30;;;;;;4921844;29;20433;-80
2022/10/09 09:15:08;;;;;;;3.20;1.07;;;16.40;96.30;;;;;;4921016;29;20416;-80
2022/10/09 09:18:03;;;;;;;3.97;1.37;;;16.40;96.30;;;;;;4927250;29;20416;-80
2022/10/09 09:20:41;;;;;;;6.40;1.33;;;16.40;96.30;;;;;;4921940;29;20798;-80
2022/10/09 09:23:12;;;;;;;3.40;1.17;;;16.60;96.30;;;;;;4919306;29;20412;-80
2022/10/09 09:25:40;;;;;;;4.83;1.20;;;16.60;96.30;;;;;;4920852;29;21176;-80
2022/10/09 09:28:12;;;;;;;4.10;1.37;;;17.30;96.30;;;;;;4919737;29;20461;-80
2022/10/09 09:30:47;;;;;;;2.57;1.10;;;17.20;96.30;;;;;;4920219;29;20460;-80
2022/10/09 09:33:23;;;;;;;3.13;1.07;;;17.40;96.30;;;;;;4919665;29;20424;-80
2022/10/09 09:36:09;;;;;;;5.77;1.60;;;16.60;96.30;;;;;;4919561;29;20415;-80
2022/10/09 09:38:35;;;;;;;6.00;1.33;;;17.00;96.30;;;;;;4918945;29;20452;-80
2022/10/09 09:41:03;;;;;;;4.27;1.30;;;17.20;96.30;;;;;;4918474;29;20448;-80
2022/10/09 09:43:29;;;;;;;6.87;1.60;;;17.20;96.30;;;;;;4925534;29;20432;-79
2022/10/09 09:45:57;;;;;;;3.67;1.10;;;16.30;96.30;;;;;;4937366;29;20562;-79
2022/10/09 09:48:36;;;;;;;5.63;1.10;;;17.00;96.30;;;;;;4924266;29;20176;-79
2022/10/09 09:51:04;;;;;;;5.93;1.00;;;17.20;96.30;;;;;;4918459;29;20442;-79
2022/10/09 09:53:38;;;;;;;4.20;1.13;;;17.00;96.30;;;;;;4923567;29;20408;-79
2022/10/09 09:56:04;;;;;;;8.30;1.53;;;16.60;96.30;;;;;;4935850;29;20427;-78
2022/10/09 09:58:37;;;;;;;3.90;0.93;;;16.70;96.30;;;;;;4939602;29;20907;-81
2022/10/09 10:01:05;;;;;;;2.50;1.00;;;16.60;96.30;;;;;;4936173;29;20924;-79
2022/10/09 10:03:32;;;;;;;3.10;1.20;;;16.40;96.30;;;;;;4929954;29;20963;-80
2022/10/09 10:05:58;;;;;;;2.80;1.27;;;15.90;96.30;;;;;;4935630;29;20463;-80
2022/10/09 10:08:33;;;;;;;6.17;1.73;;;16.40;96.30;;;;;;4936198;29;20407;-80
2022/10/09 10:11:01;;;;;;;5.50;1.63;;;16.00;96.30;;;;;;4935661;29;20457;-81
2022/10/09 10:13:33;;;;;;;2.50;1.07;;;16.10;96.30;;;;;;4937296;29;20915;-81
2022/10/09 10:16:00;;;;;;;4.40;1.23;;;16.70;96.30;;;;;;4937565;29;20406;-81
2022/10/09 10:18:28;;;;;;;4.80;1.43;;;16.80;96.30;;;;;;4935083;29;20459;-81
2022/10/09 10:20:56;;;;;;;3.23;1.00;;;16.80;96.30;;;;;;4936852;29;20435;-81
2022/10/09 10:23:32;;;;;;;5.00;1.67;;;15.80;96.30;;;;;;4936927;29;20498;-81
2022/10/09 10:26:00;;;;;;;3.23;1.33;;;16.00;96.30;;;;;;4935828;29;20987;-81
2022/10/09 10:28:30;;;;;;;5.70;1.20;;;16.10;96.30;;;;;;4935397;29;20510;-81
2022/10/09 10:30:59;;;;;;;4.40;1.50;;;15.70;96.30;;;;;;4935821;29;20443;-80
2022/10/09 10:33:30;;;;;;;8.27;1.30;;;15.60;96.30;;;;;;4937061;29;20939;-80
2022/10/09 10:35:58;;;;;;;2.83;1.00;;;15.80;96.30;;;;;;4938475;29;20420;-80
2022/10/09 10:38:42;;;;;;;2.43;0.80;;;16.00;96.30;;;;;;4937704;29;20443;-80
2022/10/09 10:41:41;;;;;;;4.47;1.00;;;15.60;96.30;;;;;;4937464;29;20486;-80
2022/10/09 10:44:46;;;;;;;3.43;0.93;;;15.40;96.30;;;;;;4933413;29;20435;-79
2022/10/09 10:47:20;;;;;;;3.33;1.00;;;15.20;96.30;;;;;;4932163;29;20977;-80
2022/10/09 10:49:45;;;;;;;3.43;1.10;;;15.50;96.30;;;;;;4917466;29;20900;-80
2022/10/09 10:52:37;;;;;;;5.83;1.30;;;15.60;96.30;;;;;;4915888;29;20519;-80
2022/10/09 10:55:34;;;;;;;3.77;1.10;;;15.50;96.30;;;;;;4914787;29;20195;-79
2022/10/09 10:58:18;;;;;;;8.37;0.90;;;15.50;96.30;;;;;;4921021;29;20453;-80
2022/10/09 11:01:09;;;;;;;3.50;1.07;;;15.60;96.30;;;;;;4933611;29;20788;-80
2022/10/09 11:03:59;;;;;;;1.83;0.90;;;15.50;96.30;;;;;;4936486;29;20432;-79
2022/10/09 11:06:45;;;;;;;3.60;1.40;;;15.80;96.30;;;;;;4938616;29;20540;-80
2022/10/09 11:09:27;;;;;;;4.77;1.07;;;16.20;96.30;;;;;;4918994;29;20527;-80
2022/10/09 11:12:11;;;;;;;1.67;1.00;;;16.40;96.30;;;;;;4928357;29;20810;-78
2022/10/09 11:14:56;;;;;;;6.90;1.70;;;15.70;96.30;;;;;;4918779;29;20416;-80
2022/10/09 11:17:40;;;;;;;3.77;1.00;;;16.10;96.30;;;;;;4925328;29;20455;-81
2022/10/09 11:20:18;;;;;;;4.40;1.33;;;16.00;96.30;;;;;;4926217;29;20574;-81
2022/10/09 11:23:15;;;;;;;2.83;1.17;;;15.70;96.30;;;;;;4925082;29;20929;-80
2022/10/09 11:25:48;;;;;;;3.57;1.20;;;15.90;96.30;;;;;;4929675;29;20968;-81
2022/10/09 11:28:38;;;;;;;3.00;1.00;;;16.50;96.30;;;;;;4929258;29;20431;-81
2022/10/09 11:31:12;;;;;;;3.83;1.50;;;16.70;96.30;;;;;;4920153;29;20605;-80
2022/10/09 11:33:42;;;;;;;7.10;1.40;;;17.00;96.30;;;;;;4928669;29;20427;-82
2022/10/09 11:36:39;;;;;;;4.00;1.57;;;16.90;96.30;;;;;;4922796;29;20416;-81
2022/10/09 11:39:12;;;;;;;3.97;1.33;;;17.00;96.30;;;;;;4929423;29;20502;-80
2022/10/09 11:41:39;;;;;;;2.90;0.90;;;16.60;96.30;;;;;;4922738;29;20474;-81
2022/10/09 11:44:31;;;;;;;3.60;1.10;;;16.70;95.50;;;;;;4923180;29;20425;-81
2022/10/09 11:47:03;;;;;;;4.30;0.93;;;16.60;95.50;;;;;;4920284;29;20456;-81
2022/10/09 11:50:01;;;;;;;3.57;1.00;;;16.40;96.20;;;;;;4921937;29;21157;-81
2022/10/09 11:52:29;;;;;;;2.70;1.00;;;16.00;96.30;;;;;;4921967;29;20435;-81
2022/10/09 11:54:54;;;;;;;3.60;0.93;;;16.40;96.30;;;;;;4920161;29;20420;-81
2022/10/09 11:57:28;;;;;;;4.73;1.30;;;16.40;92.10;;;;;;4920509;29;20413;-81
2022/10/09 12:00:08;;;;;;;2.10;0.77;;;16.40;92.90;;;;;;4920326;29;20180;-81
2022/10/09 12:02:35;;;;;;;4.00;0.90;;;16.00;94.00;;;;;;4920232;29;20439;-81
2022/10/09 12:05:01;;;;;;;1.73;0.70;;;15.60;92.60;;;;;;4920673;29;20456;-81
2022/10/09 12:07:32;;;;;;;4.63;0.70;;;15.70;92.80;;;;;;4918937;29;20511;-81
2022/10/09 12:10:20;;;;;;;2.80;0.90;;;15.80;92.40;;;;;;4920734;29;20177;-81
2022/10/09 12:12:57;;;;;;;2.07;0.90;;;15.90;94.30;;;;;;4920672;29;20452;-81
2022/10/09 12:15:27;;;;;;;2.10;1.00;;;15.90;96.30;;;;;;4917960;29;20420;-81
2022/10/09 12:17:53;;;;;;;3.17;1.20;;;16.10;93.70;;;;;;4918886;29;20944;-81
2022/10/09 12:20:24;;;;;;;8.23;1.20;;;16.00;92.80;;;;;;4919105;29;20416;-81
2022/10/09 12:22:55;;;;;;;2.83;1.10;;;15.60;94.30;;;;;;4921034;29;20183;-81
2022/10/09 12:25:42;;;;;;;1.80;0.70;;;15.90;93.20;;;;;;4920164;29;20436;-81
2022/10/09 12:28:22;;;;;;;5.70;1.20;;;15.80;93.60;;;;;;4918780;29;20435;-81
2022/10/09 12:30:50;;;;;;;6.03;1.73;;;15.50;93.90;;;;;;4920301;29;20428;-81
2022/10/09 12:33:40;;;;;;;4.27;1.10;;;15.50;95.50;;;;;;4919639;29;20408;-81
2022/10/09 12:36:13;;;;;;;3.37;0.80;;;15.70;92.30;;;;;;4918635;29;20417;-81
2022/10/09 12:38:40;;;;;;;4.37;1.03;;;15.50;92.40;;;;;;4919537;29;20419;-81
2022/10/09 12:41:20;;;;;;;4.00;1.20;;;15.50;92.70;;;;;;4918441;29;20936;-81
2022/10/09 12:43:48;;;;;;;2.50;0.90;;;15.40;95.40;;;;;;4919139;29;20447;-81
2022/10/09 12:46:23;;;;;;;2.80;0.87;;;15.50;94.50;;;;;;4918157;29;20452;-81
2022/10/09 12:48:49;;;;;;;2.40;0.90;;;15.60;94.10;;;;;;4918660;29;20515;-81
2022/10/09 12:51:18;;;;;;;2.67;0.87;;;15.80;94.10;;;;;;4919918;29;21088;-81
2022/10/09 12:53:51;;;;;;;2.17;0.70;;;15.90;93.30;;;;;;4918234;29;20204;-81
2022/10/09 12:56:26;;;;;;;5.43;1.10;;;15.70;93.00;;;;;;4918134;29;20480;-81
2022/10/09 12:58:53;;;;;;;2.20;0.83;;;15.60;94.60;;;;;;4917505;29;20422;-81
2022/10/09 13:01:19;;;;;;;7.20;1.50;;;15.90;92.50;;;;;;4918937;29;20472;-81
2022/10/09 13:04:28;;;;;;;1.70;0.80;;;15.60;92.70;;;;;;4917619;29;20451;-81
2022/10/09 13:06:55;;;;;;;1.83;0.93;;;15.60;93.70;;;;;;4912290;29;20460;-81
2022/10/09 13:09:33;;;;;;;6.70;1.30;;;15.70;93.40;;;;;;4918839;29;20416;-81
2022/10/09 13:12:04;;;;;;;4.13;0.90;;;15.70;94.00;;;;;;4918887;29;20428;-81
2022/10/09 13:14:45;;;;;;;5.90;1.10;;;15.50;94.80;;;;;;4918358;29;20413;-81
2022/10/09 13:17:31;;;;;;;3.20;1.23;;;15.40;94.50;;;;;;4917581;29;20511;-81
2022/10/09 13:20:22;;;;;;;2.20;1.10;;;15.60;91.50;;;;;;4922297;29;20416;-81
2022/10/09 13:23:00;;;;;;;5.43;1.10;;;15.60;93.30;;;;;;4926001;29;20920;-81
2022/10/09 13:25:38;;;;;;;5.20;1.30;;;15.70;93.20;;;;;;4924728;29;20454;-81
2022/10/09 13:28:04;;;;;;;2.93;0.90;;;15.40;93.50;;;;;;4926193;29;20424;-80
2022/10/09 13:30:30;;;;;;;2.23;1.00;;;15.30;93.00;;;;;;4932160;29;20499;-80
2022/10/09 13:32:56;;;;;;;1.67;1.10;;;15.10;93.10;;;;;;4936930;29;20513;-80
2022/10/09 13:35:21;;;;;;;5.47;1.50;;;15.10;96.20;;;;;;4935923;29;20172;-80
2022/10/09 13:37:47;;;;;;;4.90;1.20;;;15.00;96.00;;;;;;4931780;29;20191;-80
2022/10/09 13:40:16;;;;;;;7.57;2.13;;;15.20;95.50;;;;;;4916279;29;20187;-81
2022/10/09 13:42:49;;;;;;;14.73;2.07;;;15.20;94.30;;;;;;4916633;29;20192;-80
2022/10/09 13:45:14;;;;;;;3.43;1.37;;;15.40;95.10;;;;;;4915380;29;20467;-79
2022/10/09 13:47:40;;;;;;;3.50;1.40;;;15.50;96.20;;;;;;4915158;29;20460;-79
2022/10/09 13:50:06;;;;;;;3.57;1.27;;;15.40;94.90;;;;;;4929065;29;20219;-80
2022/10/09 13:52:31;;;;;;;3.87;1.10;;;15.50;93.90;;;;;;4935124;29;20292;-80
2022/10/09 13:54:57;;;;;;;5.53;1.10;;;15.40;94.20;;;;;;4934187;29;20191;-80
2022/10/09 13:57:22;;;;;;;5.40;1.17;;;15.30;94.70;;;;;;4936146;29;20194;-80
2022/10/09 13:59:48;;;;;;;4.80;1.40;;;15.30;96.00;;;;;;4921375;29;20192;-81
2022/10/09 14:02:13;;;;;;;3.47;1.03;;;15.50;96.10;;;;;;4917800;29;20207;-80
2022/10/09 14:04:39;;;;;;;4.87;1.20;;;15.70;94.90;;;;;;4922512;29;20180;-80
2022/10/09 14:07:04;;;;;;;5.93;1.40;;;15.70;96.30;;;;;;4934508;29;20690;-80
2022/10/09 14:09:30;;;;;;;14.10;1.47;;;15.40;95.80;;;;;;4935907;29;20179;-80
2022/10/09 14:11:55;;;;;;;6.53;1.13;;;15.30;96.00;;;;;;4936033;29;20204;-80
2022/10/09 14:14:21;;;;;;;3.87;1.00;;;15.30;95.90;;;;;;4936369;29;20242;-80
2022/10/09 14:16:47;;;;;;;3.40;0.97;;;15.20;96.30;;;;;;4936168;29;20190;-81
2022/10/09 14:19:12;;;;;;;5.40;1.23;;;15.50;95.30;;;;;;4935903;29;20274;-80
2022/10/09 14:21:38;;;;;;;5.97;1.73;;;15.50;95.30;;;;;;4935391;29;20207;-80
2022/10/09 14:24:04;;;;;;;5.83;0.97;;;15.20;95.10;;;;;;4935842;29;20205;-80
2022/10/09 14:26:29;;;;;;;3.53;1.20;;;14.90;95.30;;;;;;4935655;29;20211;-80
2022/10/09 14:28:58;;;;;;;5.60;1.00;;;15.00;94.80;;;;;;4934142;29;20270;-80
2022/10/09 14:31:24;;;;;;;2.80;0.93;;;14.90;94.00;;;;;;4931615;29;20199;-80
2022/10/09 14:33:55;;;;;;;2.80;1.00;;;14.80;94.50;;;;;;4933325;29;20753;-82
2022/10/09 14:36:21;;;;;;;5.43;1.37;;;14.70;95.00;;;;;;4933437;29;20182;-81
2022/10/09 14:38:47;;;;;;;4.30;1.03;;;14.60;96.20;;;;;;4936230;29;20415;-80
2022/10/09 14:41:16;;;;;;;3.57;1.00;;;14.30;96.30;;;;;;4937221;29;20199;-81
2022/10/09 14:43:43;;;;;;;4.50;1.50;;;14.20;96.30;;;;;;4937792;29;20427;-79
2022/10/09 14:46:15;;;;;;;4.90;1.23;;;14.30;96.30;;;;;;4938236;29;20514;-82
2022/10/09 14:48:47;;;;;;;3.33;0.90;;;14.20;95.80;;;;;;4940054;29;20411;-79
2022/10/09 14:51:16;;;;;;;7.70;1.93;;;13.90;96.30;;;;;;4941969;29;20443;-82
2022/10/09 14:53:42;;;;;;;4.83;1.00;;;13.60;96.30;;;;;;4939620;29;20411;-81
2022/10/09 14:56:11;;;;;;;4.80;1.00;;;13.50;96.30;;;;;;4939466;29;20458;-81
2022/10/09 14:58:38;;;;;;;2.60;1.10;;;13.50;96.30;;;;;;4937960;29;20433;-79
2022/10/09 15:01:04;;;;;;;8.70;1.63;;;13.30;96.30;;;;;;4922356;29;20488;-82
2022/10/09 15:03:29;;;;;;;3.73;1.20;;;13.20;96.30;;;;;;4921106;29;20424;-81
2022/10/09 15:05:57;;;;;;;7.90;3.30;;;13.20;96.30;;;;;;4919400;29;20459;-81
2022/10/09 15:08:22;;;;;;;3.73;1.60;;;13.20;96.30;;;;;;4918851;29;20420;-81
2022/10/09 15:10:48;;;;;;;11.63;7.17;;;13.20;96.30;;;;;;4919253;29;20584;-81
2022/10/09 15:13:14;;;;;;;3.77;1.00;;;13.20;96.30;;;;;;4924352;29;20655;-81
2022/10/09 15:15:41;;;;;;;5.63;1.87;;;12.90;96.30;;;;;;4929885;29;20424;-80
2022/10/09 15:18:07;;;;;;;11.47;2.60;;;12.90;96.30;;;;;;4926214;29;20208;-81
2022/10/09 15:20:33;;;;;;;5.90;1.20;;;12.70;96.30;;;;;;4923998;29;20908;-81
2022/10/09 15:22:59;;;;;;;4.37;2.93;;;;;;;;;;4924159;29;20743;-81
2022/10/09 15:25:29;;;;;;;3.70;1.40;;;12.60;96.30;;;;;;4926574;29;20259;-82
2022/10/09 15:27:56;;;;;;;3.90;2.03;;;12.50;96.30;;;;;;4924362;29;20463;-81
2022/10/09 15:30:22;;;;;;;5.70;2.20;;;12.40;96.30;;;;;;4922779;29;20780;-81
2022/10/09 15:32:47;;;;;;;6.37;3.00;;;12.40;96.30;;;;;;4921129;29;20416;-81
2022/10/09 15:35:13;;;;;;;5.83;3.80;;;12.40;96.30;;;;;;4919902;29;20184;-81
2022/10/09 15:37:39;;;;;;;4.20;1.67;;;12.20;96.30;;;;;;4920476;29;20244;-82
2022/10/09 15:40:05;;;;;;;3.90;1.40;;;12.10;96.30;;;;;;4922576;29;20200;-82
2022/10/09 15:42:31;;;;;;;3.30;1.57;;;12.10;96.30;;;;;;4939381;29;20498;-81
2022/10/09 15:44:56;;;;;;;12.80;5.60;;;12.00;96.30;;;;;;4937334;29;20415;-81
2022/10/09 15:47:22;;;;;;;3.47;1.63;;;11.80;96.30;;;;;;4939619;29;20458;-82
2022/10/09 15:49:47;;;;;;;6.70;3.30;;;11.80;96.30;;;;;;4939455;29;20703;-82
2022/10/09 15:52:13;;;;;;;3.40;1.80;;;11.70;96.30;;;;;;4941032;29;20202;-83
2022/10/09 15:54:38;;;;;;;4.63;2.50;;;11.60;96.30;;;;;;4945823;29;20184;-82
2022/10/09 15:57:04;;;;;;;6.73;2.10;;;11.40;96.30;;;;;;4949375;29;20323;-81
2022/10/09 15:59:30;;;;;;;5.67;2.03;;;11.30;96.30;;;;;;4936690;29;20200;-82
2022/10/09 16:01:56;;;;;;;5.23;2.40;;;11.20;96.30;;;;;;4944140;29;20228;-82
2022/10/09 16:04:21;;;;;;;13.23;7.87;;;11.00;96.30;;;;;;4928655;29;20479;-81
2022/10/09 16:06:47;;;;;;;7.70;4.83;;;11.00;96.30;;;;;;4936802;29;20203;-82
2022/10/09 16:09:12;;;;;;;23.00;10.20;;;10.80;96.30;;;;;;4946679;29;20253;-81
2022/10/09 16:11:38;;;;;;;18.20;6.90;;;10.70;96.30;;;;;;4944629;29;20210;-82
2022/10/09 16:14:03;;;;;;;7.70;4.57;;;10.60;96.30;;;;;;4947274;29;20187;-82
2022/10/09 16:16:29;;;;;;;13.60;6.13;;;10.50;96.30;;;;;;4948539;29;20204;-82
2022/10/09 16:18:55;;;;;;;11.87;6.20;;;10.50;96.30;;;;;;4945553;29;20215;-82
2022/10/09 16:21:26;;;;;;;7.50;3.43;;;10.40;96.30;;;;;;4950242;29;20203;-81
2022/10/09 16:23:53;;;;;;;7.30;2.50;;;10.30;96.30;;;;;;4949303;29;20947;-81
2022/10/09 16:26:21;;;;;;;8.63;3.13;;;10.30;96.30;;;;;;4947900;29;20459;-81
2022/10/09 16:28:47;;;;;;;5.40;3.03;;;10.30;96.30;;;;;;4942844;29;20428;-81
2022/10/09 16:31:18;;;;;;;9.27;4.00;;;10.20;96.30;;;;;;4935940;29;20495;-82
2022/10/09 16:33:44;;;;;;;5.10;3.00;;;10.10;96.30;;;;;;4934407;29;20499;-82
2022/10/09 16:36:11;;;;;;;6.90;3.17;;;10.00;96.30;;;;;;4942153;29;20428;-82
2022/10/09 16:38:37;;;;;;;5.27;2.37;;;10.00;96.30;;;;;;4926346;29;20184;-81
2022/10/09 16:41:10;;;;;;;7.30;2.00;;;9.90;96.30;;;;;;4939067;29;20459;-81
2022/10/09 16:43:37;;;;;;;4.00;1.90;;;9.80;96.30;;;;;;4935046;29;20443;-80
2022/10/09 16:46:13;;;;;;;10.13;5.27;;;9.80;96.30;;;;;;4938460;29;20558;-81
2022/10/09 16:48:39;;;;;;;13.23;4.70;;;9.60;96.30;;;;;;4936769;29;20427;-80
2022/10/09 16:51:17;;;;;;;17.60;9.63;;;9.50;96.30;;;;;;4937073;29;21098;-80
2022/10/09 16:53:43;;;;;;;8.83;5.67;;;9.30;96.30;;;;;;4924932;29;20219;-81
2022/10/09 16:56:11;;;;;;;10.63;4.03;;;9.20;96.30;;;;;;4930323;29;20439;-79
2022/10/09 16:58:38;;;;;;;7.87;3.03;;;9.30;96.30;;;;;;4936622;29;20186;-81
2022/10/09 17:01:04;;;;;;;4.87;2.03;;;9.30;96.30;;;;;;4937950;29;20443;-81
2022/10/09 17:03:30;;;;;;;6.57;1.83;;;9.20;96.30;;;;;;4938592;29;20427;-80
2022/10/09 17:05:56;;;;;;;9.30;2.00;;;9.10;96.30;;;;;;4937708;29;20566;-80
2022/10/09 17:08:21;;;;;;;3.20;1.77;;;9.10;96.30;;;;;;4934272;29;20569;-81